sensor_id;sensor_type;location;lat;lon;timestamp;pressure;altitude;pressure_sealevel;temperature;humidity
13080;BME280;6606;49.154;9.280;2023-02-17T00:00:40;100507.13;;;9.73;100.00
13080;BME280;6606;49.154;9.280;2023-02-17T00:03:23;100507.25;;;9.69;100.00
13080;BME280;6606;49.154;9.280;2023-02-17T00:06:06;100503.56;;;9.74;100.00
13080;BME280;6606;49.154;9.280;2023-02-17T00:08:48;100508.09;;;9.70;100.00
13080;BME280;6606;49.154;9.280;2023-02-17T00:11:30;100504.72;;;9.65;100.00
13080;BME280;6606;49.154;9.280;2023-02-17T00:14:12;100500.03;;;9.73;100.00
13080;BME280;6606;49.154;9.280;2023-02-17T00:16:54;100497.97;;;9.56;100.00
13080;BME280;6606;49.154;9.280;2023-02-17T00:19:37;100497.53;;;9.42;100.00
13080;BME280;6606;49.154;9.280;2023-02-17T00:22:18;100489.78;;;9.64;100.00
13080;BME280;6606;49.154;9.280;2023-02-17T00:25:00;100495.53;;;9.77;100.00
13080;BME280;6606;49.154;9.280;2023-02-17T00:27:42;100495.47;;;9.78;100.00
13080;BME280;6606;49.154;9.280;2023-02-17T00:30:23;100496.41;;;9.77;100.00
13080;BME280;6606;49.154;9.280;2023-02-17T00:33:06;100499.91;;;9.78;100.00
13080;BME280;6606;49.154;9.280;2023-02-17T00:35:50;100496.78;;;9.91;100.00
13080;BME280;6606;49.154;9.280;2023-02-17T00:38:32;100503.50;;;10.02;100.00
13080;BME280;6606;49.154;9.280;2023-02-17T00:41:14;100494.69;;;10.01;100.00
13080;BME280;6606;49.154;9.280;2023-02-17T00:43:56;100483.50;;;9.93;100.00
13080;BME280;6606;49.154;9.280;2023-02-17T00:46:38;100489.13;;;10.09;100.00
13080;BME280;6606;49.154;9.280;2023-02-17T00:49:21;100486.41;;;10.10;100.00
13080;BME280;6606;49.154;9.280;2023-02-17T00:52:05;100491.94;;;10.04;100.00
13080;BME280;6606;49.154;9.280;2023-02-17T00:54:47;100487.75;;;9.97;100.00
13080;BME280;6606;49.154;9.280;2023-02-17T00:57:29;100498.47;;;9.94;100.00
13080;BME280;6606;49.154;9.280;2023-02-17T01:00:12;100500.09;;;9.98;100.00
13080;BME280;6606;49.154;9.280;2023-02-17T01:02:54;100493.75;;;10.02;100.00
13080;BME280;6606;49.154;9.280;2023-02-17T01:05:39;100490.63;;;9.91;100.00
13080;BME280;6606;49.154;9.280;2023-02-17T01:08:23;100478.50;;;9.84;100.00
13080;BME280;6606;49.154;9.280;2023-02-17T01:11:05;100483.78;;;9.84;100.00
13080;BME280;6606;49.154;9.280;2023-02-17T01:13:48;100476.91;;;9.80;100.00
13080;BME280;6606;49.154;9.280;2023-02-17T01:16:31;100484.16;;;9.73;100.00
13080;BME280;6606;49.154;9.280;2023-02-17T01:19:17;100488.50;;;9.76;100.00
13080;BME280;6606;49.154;9.280;2023-02-17T01:22:01;100488.22;;;9.83;100.00
13080;BME280;6606;49.154;9.280;2023-02-17T01:24:44;100484.84;;;9.80;100.00
13080;BME280;6606;49.154;9.280;2023-02-17T01:27:26;100474.19;;;9.81;100.00
13080;BME280;6606;49.154;9.280;2023-02-17T01:30:09;100472.19;;;9.88;100.00
13080;BME280;6606;49.154;9.280;2023-02-17T01:32:50;100476.91;;;9.80;100.00
13080;BME280;6606;49.154;9.280;2023-02-17T01:35:33;100464.88;;;9.95;100.00
13080;BME280;6606;49.154;9.280;2023-02-17T01:38:14;100465.22;;;9.85;100.00
13080;BME280;6606;49.154;9.280;2023-02-17T01:40:58;100472.91;;;9.93;100.00
13080;BME280;6606;49.154;9.280;2023-02-17T01:43:40;100459.44;;;9.99;100.00
13080;BME280;6606;49.154;9.280;2023-02-17T01:46:23;100460.16;;;10.04;100.00
13080;BME280;6606;49.154;9.280;2023-02-17T01:49:13;100451.81;;;10.15;100.00
13080;BME280;6606;49.154;9.280;2023-02-17T01:52:00;100456.25;;;10.15;100.00
13080;BME280;6606;49.154;9.280;2023-02-17T01:54:46;100454.53;;;10.13;100.00
13080;BME280;6606;49.154;9.280;2023-02-17T01:57:34;100452.28;;;10.28;100.00
13080;BME280;6606;49.154;9.280;2023-02-17T02:00:19;100458.56;;;10.24;100.00
13080;BME280;6606;49.154;9.280;2023-02-17T02:03:03;100459.66;;;10.18;100.00
13080;BME280;6606;49.154;9.280;2023-02-17T02:05:46;100457.69;;;10.23;100.00
13080;BME280;6606;49.154;9.280;2023-02-17T02:08:28;100447.16;;;10.22;100.00
13080;BME280;6606;49.154;9.280;2023-02-17T02:11:15;100449.88;;;10.20;100.00
13080;BME280;6606;49.154;9.280;2023-02-17T02:14:02;100453.16;;;10.27;100.00
13080;BME280;6606;49.154;9.280;2023-02-17T02:16:52;100451.03;;;10.38;100.00
13080;BME280;6606;49.154;9.280;2023-02-17T02:23:14;100449.47;;;10.32;100.00
13080;BME280;6606;49.154;9.280;2023-02-17T02:26:33;100442.50;;;10.30;100.00
13080;BME280;6606;49.154;9.280;2023-02-17T02:29:35;100434.19;;;10.14;100.00
13080;BME280;6606;49.154;9.280;2023-02-17T02:32:35;100430.69;;;10.13;100.00
13080;BME280;6606;49.154;9.280;2023-02-17T02:35:25;100422.84;;;10.10;100.00
13080;BME280;6606;49.154;9.280;2023-02-17T02:38:13;100418.44;;;10.11;100.00
13080;BME280;6606;49.154;9.280;2023-02-17T02:41:02;100414.09;;;10.08;100.00
13080;BME280;6606;49.154;9.280;2023-02-17T02:43:46;100414.03;;;10.10;100.00
13080;BME280;6606;49.154;9.280;2023-02-17T02:46:28;100415.13;;;10.04;100.00
13080;BME280;6606;49.154;9.280;2023-02-17T02:49:11;100410.53;;;10.09;100.00
13080;BME280;6606;49.154;9.280;2023-02-17T02:51:55;100409.53;;;10.12;100.00
13080;BME280;6606;49.154;9.280;2023-02-17T02:54:49;100409.50;;;10.13;100.00
13080;BME280;6606;49.154;9.280;2023-02-17T02:57:38;100404.88;;;10.19;100.00
13080;BME280;6606;49.154;9.280;2023-02-17T03:00:28;100391.34;;;10.26;100.00
13080;BME280;6606;49.154;9.280;2023-02-17T03:03:17;100399.28;;;10.28;100.00
13080;BME280;6606;49.154;9.280;2023-02-17T03:06:12;100396.88;;;10.20;100.00
13080;BME280;6606;49.154;9.280;2023-02-17T03:09:01;100386.78;;;10.31;100.00
13080;BME280;6606;49.154;9.280;2023-02-17T03:11:44;100389.81;;;10.44;100.00
13080;BME280;6606;49.154;9.280;2023-02-17T03:14:27;100387.88;;;10.49;100.00
13080;BME280;6606;49.154;9.280;2023-02-17T03:17:09;100392.00;;;10.56;100.00
13080;BME280;6606;49.154;9.280;2023-02-17T03:19:51;100387.53;;;10.59;100.00
13080;BME280;6606;49.154;9.280;2023-02-17T03:22:36;100382.97;;;10.62;100.00
13080;BME280;6606;49.154;9.280;2023-02-17T03:25:19;100387.78;;;10.74;100.00
13080;BME280;6606;49.154;9.280;2023-02-17T03:28:01;100382.84;;;10.65;100.00
13080;BME280;6606;49.154;9.280;2023-02-17T03:30:43;100388.66;;;10.75;100.00
13080;BME280;6606;49.154;9.280;2023-02-17T03:33:25;100387.53;;;10.81;100.00
13080;BME280;6606;49.154;9.280;2023-02-17T03:36:06;100392.72;;;10.84;100.00
13080;BME280;6606;49.154;9.280;2023-02-17T03:38:50;100394.44;;;10.85;100.00
13080;BME280;6606;49.154;9.280;2023-02-17T03:41:31;100405.81;;;10.88;100.00
13080;BME280;6606;49.154;9.280;2023-02-17T03:44:13;100393.56;;;10.84;100.00
13080;BME280;6606;49.154;9.280;2023-02-17T03:46:55;100403.06;;;10.90;100.00
13080;BME280;6606;49.154;9.280;2023-02-17T03:49:36;100401.41;;;10.87;100.00
13080;BME280;6606;49.154;9.280;2023-02-17T03:52:18;100403.88;;;10.92;100.00
13080;BME280;6606;49.154;9.280;2023-02-17T03:55:01;100404.88;;;10.89;100.00
13080;BME280;6606;49.154;9.280;2023-02-17T03:57:43;100398.03;;;10.84;100.00
13080;BME280;6606;49.154;9.280;2023-02-17T04:00:24;100402.59;;;10.80;100.00
13080;BME280;6606;49.154;9.280;2023-02-17T04:03:06;100400.72;;;10.82;100.00
13080;BME280;6606;49.154;9.280;2023-02-17T04:05:48;100405.47;;;10.74;100.00
13080;BME280;6606;49.154;9.280;2023-02-17T04:08:30;100404.69;;;10.72;100.00
13080;BME280;6606;49.154;9.280;2023-02-17T04:11:13;100402.75;;;10.75;100.00
13080;BME280;6606;49.154;9.280;2023-02-17T04:13:55;100392.09;;;10.77;100.00
13080;BME280;6606;49.154;9.280;2023-02-17T04:16:37;100399.72;;;10.63;100.00
13080;BME280;6606;49.154;9.280;2023-02-17T04:19:19;100397.75;;;10.68;100.00
13080;BME280;6606;49.154;9.280;2023-02-17T04:22:01;100389.63;;;10.72;100.00
13080;BME280;6606;49.154;9.280;2023-02-17T04:24:44;100391.22;;;10.76;100.00
13080;BME280;6606;49.154;9.280;2023-02-17T04:27:27;100398.88;;;10.84;100.00
13080;BME280;6606;49.154;9.280;2023-02-17T04:30:09;100392.09;;;10.77;100.00
13080;BME280;6606;49.154;9.280;2023-02-17T04:32:51;100390.91;;;10.84;100.00
13080;BME280;6606;49.154;9.280;2023-02-17T04:35:33;100396.59;;;10.75;100.00
13080;BME280;6606;49.154;9.280;2023-02-17T04:38:15;100386.84;;;10.75;100.00
13080;BME280;6606;49.154;9.280;2023-02-17T04:40:57;100386.81;;;10.77;100.00
13080;BME280;6606;49.154;9.280;2023-02-17T04:43:41;100388.53;;;10.78;100.00
13080;BME280;6606;49.154;9.280;2023-02-17T04:46:22;100388.41;;;10.81;100.00
13080;BME280;6606;49.154;9.280;2023-02-17T04:49:04;100389.13;;;10.85;100.00
13080;BME280;6606;49.154;9.280;2023-02-17T04:51:46;100383.81;;;10.85;100.00
13080;BME280;6606;49.154;9.280;2023-02-17T04:54:27;100382.47;;;10.96;100.00
13080;BME280;6606;49.154;9.280;2023-02-17T04:57:09;100394.94;;;10.94;100.00
13080;BME280;6606;49.154;9.280;2023-02-17T04:59:52;100396.00;;;10.90;100.00
13080;BME280;6606;49.154;9.280;2023-02-17T05:02:34;100389.75;;;10.91;100.00
13080;BME280;6606;49.154;9.280;2023-02-17T05:05:16;100392.59;;;10.87;100.00
13080;BME280;6606;49.154;9.280;2023-02-17T05:07:58;100387.91;;;10.93;100.00
13080;BME280;6606;49.154;9.280;2023-02-17T05:10:40;100394.38;;;10.86;100.00
13080;BME280;6606;49.154;9.280;2023-02-17T05:13:21;100397.03;;;10.86;100.00
13080;BME280;6606;49.154;9.280;2023-02-17T05:16:04;100396.03;;;10.89;100.00
13080;BME280;6606;49.154;9.280;2023-02-17T05:18:46;100395.88;;;10.93;100.00
13080;BME280;6606;49.154;9.280;2023-02-17T05:21:28;100402.34;;;10.86;100.00
13080;BME280;6606;49.154;9.280;2023-02-17T05:24:10;100404.06;;;10.87;100.00
13080;BME280;6606;49.154;9.280;2023-02-17T05:26:51;100404.72;;;10.92;100.00
13080;BME280;6606;49.154;9.280;2023-02-17T05:29:33;100406.84;;;10.84;100.00
13080;BME280;6606;49.154;9.280;2023-02-17T05:32:16;100407.63;;;10.86;100.00
13080;BME280;6606;49.154;9.280;2023-02-17T05:34:58;100406.84;;;10.84;100.00
13080;BME280;6606;49.154;9.280;2023-02-17T05:37:40;100409.59;;;10.81;100.00
13080;BME280;6606;49.154;9.280;2023-02-17T05:40:21;100411.44;;;10.79;100.00
13080;BME280;6606;49.154;9.280;2023-02-17T05:43:03;100416.53;;;10.85;100.00
13080;BME280;6606;49.154;9.280;2023-02-17T05:45:45;100410.34;;;10.85;100.00
13080;BME280;6606;49.154;9.280;2023-02-17T05:48:28;100418.63;;;10.77;100.00
13080;BME280;6606;49.154;9.280;2023-02-17T05:51:11;100424.97;;;10.73;100.00
13080;BME280;6606;49.154;9.280;2023-02-17T05:53:56;100423.16;;;10.73;100.00
13080;BME280;6606;49.154;9.280;2023-02-17T05:56:38;100427.47;;;10.76;100.00
13080;BME280;6606;49.154;9.280;2023-02-17T05:59:20;100420.16;;;10.83;100.00
13080;BME280;6606;49.154;9.280;2023-02-17T06:02:01;100430.09;;;10.77;100.00
13080;BME280;6606;49.154;9.280;2023-02-17T06:04:44;100427.75;;;10.92;100.00
13080;BME280;6606;49.154;9.280;2023-02-17T06:07:26;100425.94;;;10.92;100.00
13080;BME280;6606;49.154;9.280;2023-02-17T06:10:09;100419.22;;;10.84;100.00
13080;BME280;6606;49.154;9.280;2023-02-17T06:12:51;100413.97;;;10.82;100.00
13080;BME280;6606;49.154;9.280;2023-02-17T06:15:32;100415.13;;;10.98;100.00
13080;BME280;6606;49.154;9.280;2023-02-17T06:18:14;100424.19;;;10.93;100.00
13080;BME280;6606;49.154;9.280;2023-02-17T06:20:58;100416.63;;;10.82;100.00
13080;BME280;6606;49.154;9.280;2023-02-17T06:23:39;100423.44;;;10.89;100.00
13080;BME280;6606;49.154;9.280;2023-02-17T06:26:21;100420.47;;;10.97;100.00
13080;BME280;6606;49.154;9.280;2023-02-17T06:29:05;100432.63;;;11.03;100.00
13080;BME280;6606;49.154;9.280;2023-02-17T06:31:47;100430.78;;;11.05;100.00
13080;BME280;6606;49.154;9.280;2023-02-17T06:34:28;100429.84;;;11.06;100.00
13080;BME280;6606;49.154;9.280;2023-02-17T06:37:12;100434.25;;;11.07;100.00
13080;BME280;6606;49.154;9.280;2023-02-17T06:39:53;100433.44;;;11.05;100.00
13080;BME280;6606;49.154;9.280;2023-02-17T06:42:35;100435.84;;;11.11;100.00
13080;BME280;6606;49.154;9.280;2023-02-17T06:45:17;100431.47;;;11.10;100.00
13080;BME280;6606;49.154;9.280;2023-02-17T06:47:58;100432.81;;;11.20;100.00
13080;BME280;6606;49.154;9.280;2023-02-17T06:50:40;100439.41;;;11.10;100.00
13080;BME280;6606;49.154;9.280;2023-02-17T06:53:23;100435.69;;;11.14;100.00
13080;BME280;6606;49.154;9.280;2023-02-17T06:56:05;100426.66;;;11.19;100.00
13080;BME280;6606;49.154;9.280;2023-02-17T06:58:47;100428.69;;;11.13;100.00
13080;BME280;6606;49.154;9.280;2023-02-17T07:01:29;100434.94;;;11.12;100.00
13080;BME280;6606;49.154;9.280;2023-02-17T07:04:10;100439.16;;;11.16;100.00
13080;BME280;6606;49.154;9.280;2023-02-17T07:06:52;100440.69;;;11.21;100.00
13080;BME280;6606;49.154;9.280;2023-02-17T07:09:35;100432.00;;;11.18;100.00
13080;BME280;6606;49.154;9.280;2023-02-17T07:12:17;100447.13;;;11.16;100.00
13080;BME280;6606;49.154;9.280;2023-02-17T07:14:59;100444.88;;;11.27;100.00
13080;BME280;6606;49.154;9.280;2023-02-17T07:17:44;100448.56;;;11.25;100.00
13080;BME280;6606;49.154;9.280;2023-02-17T07:20:25;100445.34;;;11.16;100.00
13080;BME280;6606;49.154;9.280;2023-02-17T07:23:07;100447.97;;;11.16;100.00
13080;BME280;6606;49.154;9.280;2023-02-17T07:25:50;100449.72;;;11.17;100.00
13080;BME280;6606;49.154;9.280;2023-02-17T07:28:32;100450.47;;;11.21;100.00
13080;BME280;6606;49.154;9.280;2023-02-17T07:31:15;100445.78;;;11.28;100.00
13080;BME280;6606;49.154;9.280;2023-02-17T07:33:57;100452.75;;;11.30;100.00
13080;BME280;6606;49.154;9.280;2023-02-17T07:36:39;100452.81;;;11.29;100.00
13080;BME280;6606;49.154;9.280;2023-02-17T07:39:21;100463.72;;;11.21;100.00
13080;BME280;6606;49.154;9.280;2023-02-17T07:42:04;100453.63;;;11.31;100.00
13080;BME280;6606;49.154;9.280;2023-02-17T07:44:46;100462.81;;;11.22;100.00
13080;BME280;6606;49.154;9.280;2023-02-17T07:47:28;100465.41;;;11.23;100.00
13080;BME280;6606;49.154;9.280;2023-02-17T07:50:10;100453.91;;;11.23;100.00
13080;BME280;6606;49.154;9.280;2023-02-17T07:52:51;100476.81;;;11.04;100.00
13080;BME280;6606;49.154;9.280;2023-02-17T07:55:33;100470.56;;;11.05;100.00
13080;BME280;6606;49.154;9.280;2023-02-17T07:58:16;100482.31;;;11.21;100.00
13080;BME280;6606;49.154;9.280;2023-02-17T08:01:04;100472.50;;;11.23;100.00
13080;BME280;6606;49.154;9.280;2023-02-17T08:03:46;100482.69;;;11.12;100.00
13080;BME280;6606;49.154;9.280;2023-02-17T08:06:28;100481.56;;;11.17;100.00
13080;BME280;6606;49.154;9.280;2023-02-17T08:09:10;100486.75;;;11.20;100.00
13080;BME280;6606;49.154;9.280;2023-02-17T08:12:14;100486.13;;;11.14;100.00
13080;BME280;6606;49.154;9.280;2023-02-17T08:15:15;100486.88;;;11.17;100.00
13080;BME280;6606;49.154;9.280;2023-02-17T08:17:56;100486.38;;;11.08;100.00
13080;BME280;6606;49.154;9.280;2023-02-17T08:20:40;100479.91;;;11.15;100.00
13080;BME280;6606;49.154;9.280;2023-02-17T08:23:21;100484.06;;;11.22;100.00
13080;BME280;6606;49.154;9.280;2023-02-17T08:26:03;100485.63;;;11.26;100.00
13080;BME280;6606;49.154;9.280;2023-02-17T08:28:45;100487.47;;;11.24;100.00
13080;BME280;6606;49.154;9.280;2023-02-17T08:31:31;100492.75;;;11.26;100.00
13080;BME280;6606;49.154;9.280;2023-02-17T08:34:13;100482.03;;;11.27;100.00
13080;BME280;6606;49.154;9.280;2023-02-17T08:36:55;100485.47;;;11.31;100.00
13080;BME280;6606;49.154;9.280;2023-02-17T08:39:37;100483.53;;;11.34;100.00
13080;BME280;6606;49.154;9.280;2023-02-17T08:42:18;100485.94;;;11.40;100.00
13080;BME280;6606;49.154;9.280;2023-02-17T08:45:00;100489.34;;;11.44;100.00
13080;BME280;6606;49.154;9.280;2023-02-17T08:47:43;100488.59;;;11.40;100.00
13080;BME280;6606;49.154;9.280;2023-02-17T08:50:25;100485.63;;;11.26;100.00
13080;BME280;6606;49.154;9.280;2023-02-17T08:53:07;100490.13;;;11.24;100.00
13080;BME280;6606;49.154;9.280;2023-02-17T08:55:48;100487.34;;;11.27;100.00
13080;BME280;6606;49.154;9.280;2023-02-17T08:58:30;100479.41;;;11.27;100.00
13080;BME280;6606;49.154;9.280;2023-02-17T09:01:12;100488.13;;;11.31;100.00
13080;BME280;6606;49.154;9.280;2023-02-17T09:03:57;100487.91;;;11.13;100.00
13080;BME280;6606;49.154;9.280;2023-02-17T09:06:41;100491.06;;;11.23;100.00
13080;BME280;6606;49.154;9.280;2023-02-17T09:09:25;100491.13;;;11.21;100.00
13080;BME280;6606;49.154;9.280;2023-02-17T09:12:07;100486.28;;;11.33;100.00
13080;BME280;6606;49.154;9.280;2023-02-17T09:14:48;100500.28;;;11.36;100.00
13080;BME280;6606;49.154;9.280;2023-02-17T09:17:30;100503.44;;;11.46;100.00
13080;BME280;6606;49.154;9.280;2023-02-17T09:20:13;100507.84;;;11.45;100.00
13080;BME280;6606;49.154;9.280;2023-02-17T09:22:55;100513.53;;;11.36;100.00
13080;BME280;6606;49.154;9.280;2023-02-17T09:25:37;100508.63;;;11.49;100.00
13080;BME280;6606;49.154;9.280;2023-02-17T09:28:19;100509.41;;;11.51;100.00
13080;BME280;6606;49.154;9.280;2023-02-17T09:31:07;100499.34;;;11.80;100.00
13080;BME280;6606;49.154;9.280;2023-02-17T09:33:49;100500.28;;;12.01;100.00
13080;BME280;6606;49.154;9.280;2023-02-17T09:36:36;100504.63;;;11.81;100.00
13080;BME280;6606;49.154;9.280;2023-02-17T09:39:19;100514.44;;;11.79;100.00
13080;BME280;6606;49.154;9.280;2023-02-17T09:42:01;100507.78;;;11.91;100.00
13080;BME280;6606;49.154;9.280;2023-02-17T09:44:45;100512.50;;;12.05;100.00
13080;BME280;6606;49.154;9.280;2023-02-17T09:47:33;100523.59;;;11.94;100.00
13080;BME280;6606;49.154;9.280;2023-02-17T09:50:21;100512.66;;;12.02;100.00
13080;BME280;6606;49.154;9.280;2023-02-17T09:53:11;100501.28;;;11.98;100.00
13080;BME280;6606;49.154;9.280;2023-02-17T09:55:58;100508.25;;;12.01;100.00
13080;BME280;6606;49.154;9.280;2023-02-17T09:58:46;100516.56;;;12.14;100.00
13080;BME280;6606;49.154;9.280;2023-02-17T10:01:31;100507.31;;;12.22;100.00
13080;BME280;6606;49.154;9.280;2023-02-17T10:04:17;100507.41;;;12.21;100.00
13080;BME280;6606;49.154;9.280;2023-02-17T10:07:01;100503.56;;;12.28;100.00
13080;BME280;6606;49.154;9.280;2023-02-17T10:09:50;100497.44;;;12.26;100.00
13080;BME280;6606;49.154;9.280;2023-02-17T10:12:35;100513.56;;;12.21;100.00
13080;BME280;6606;49.154;9.280;2023-02-17T10:15:21;100508.13;;;12.24;100.00
13080;BME280;6606;49.154;9.280;2023-02-17T10:18:09;100508.19;;;12.02;100.00
13080;BME280;6606;49.154;9.280;2023-02-17T10:20:57;100499.28;;;12.03;100.00
13080;BME280;6606;49.154;9.280;2023-02-17T10:23:40;100514.00;;;12.12;100.00
13080;BME280;6606;49.154;9.280;2023-02-17T10:26:30;100509.56;;;11.91;100.00
13080;BME280;6606;49.154;9.280;2023-02-17T10:29:28;100504.16;;;11.94;100.00
13080;BME280;6606;49.154;9.280;2023-02-17T10:32:20;100496.28;;;11.91;100.00
13080;BME280;6606;49.154;9.280;2023-02-17T10:35:12;100497.47;;;12.04;100.00
13080;BME280;6606;49.154;9.280;2023-02-17T10:38:00;100504.91;;;11.96;100.00
13080;BME280;6606;49.154;9.280;2023-02-17T10:40:45;100499.19;;;11.84;100.00
13080;BME280;6606;49.154;9.280;2023-02-17T10:43:31;100497.34;;;11.86;100.00
13080;BME280;6606;49.154;9.280;2023-02-17T10:46:16;100495.97;;;11.76;100.00
13080;BME280;6606;49.154;9.280;2023-02-17T10:49:00;100486.59;;;11.90;100.00
13080;BME280;6606;49.154;9.280;2023-02-17T10:51:41;100487.97;;;11.78;100.00
13080;BME280;6606;49.154;9.280;2023-02-17T10:54:28;100487.44;;;11.90;100.00
13080;BME280;6606;49.154;9.280;2023-02-17T10:57:13;100491.19;;;11.86;100.00
13080;BME280;6606;49.154;9.280;2023-02-17T10:59:58;100481.53;;;11.83;100.00
13080;BME280;6606;49.154;9.280;2023-02-17T11:02:41;100493.88;;;11.84;100.00
13080;BME280;6606;49.154;9.280;2023-02-17T11:05:25;100484.56;;;11.74;100.00
13080;BME280;6606;49.154;9.280;2023-02-17T11:08:24;100486.97;;;11.80;100.00
13080;BME280;6606;49.154;9.280;2023-02-17T11:11:15;100489.31;;;11.88;100.00
13080;BME280;6606;49.154;9.280;2023-02-17T11:14:08;100481.00;;;11.96;100.00
13080;BME280;6606;49.154;9.280;2023-02-17T11:16:56;100476.84;;;12.10;100.00
13080;BME280;6606;49.154;9.280;2023-02-17T11:19:39;100478.50;;;12.13;100.00
13080;BME280;6606;49.154;9.280;2023-02-17T11:22:33;100479.31;;;12.15;100.00
13080;BME280;6606;49.154;9.280;2023-02-17T11:25:20;100478.22;;;12.19;100.00
13080;BME280;6606;49.154;9.280;2023-02-17T11:28:22;100479.53;;;12.29;100.00
13080;BME280;6606;49.154;9.280;2023-02-17T11:32:01;100480.56;;;12.46;100.00
13080;BME280;6606;49.154;9.280;2023-02-17T11:34:55;100483.91;;;12.51;100.00
13080;BME280;6606;49.154;9.280;2023-02-17T11:37:41;100478.72;;;12.48;100.00
13080;BME280;6606;49.154;9.280;2023-02-17T11:40:24;100477.00;;;12.47;100.00
13080;BME280;6606;49.154;9.280;2023-02-17T11:43:14;100482.19;;;12.50;100.00
13080;BME280;6606;49.154;9.280;2023-02-17T11:46:07;100475.28;;;12.65;100.00
13080;BME280;6606;49.154;9.280;2023-02-17T11:49:25;100474.56;;;12.61;100.00
13080;BME280;6606;49.154;9.280;2023-02-17T11:52:20;100482.91;;;12.72;100.00
13080;BME280;6606;49.154;9.280;2023-02-17T11:55:17;100480.00;;;12.79;100.00
13080;BME280;6606;49.154;9.280;2023-02-17T11:58:16;100488.13;;;12.75;100.00
13080;BME280;6606;49.154;9.280;2023-02-17T12:01:15;100469.97;;;12.65;100.00
13080;BME280;6606;49.154;9.280;2023-02-17T12:04:16;100474.66;;;12.79;100.00
13080;BME280;6606;49.154;9.280;2023-02-17T12:07:25;100476.53;;;12.95;100.00
13080;BME280;6606;49.154;9.280;2023-02-17T12:10:13;100471.28;;;12.94;100.00
13080;BME280;6606;49.154;9.280;2023-02-17T12:13:02;100464.38;;;13.09;100.00
13080;BME280;6606;49.154;9.280;2023-02-17T12:15:59;100460.88;;;13.26;100.00
13080;BME280;6606;49.154;9.280;2023-02-17T12:18:51;100457.97;;;13.49;100.00
13080;BME280;6606;49.154;9.280;2023-02-17T12:21:50;100450.53;;;13.38;100.00
13080;BME280;6606;49.154;9.280;2023-02-17T12:24:42;100454.41;;;13.68;100.00
13080;BME280;6606;49.154;9.280;2023-02-17T12:27:40;100442.03;;;13.67;100.00
13080;BME280;6606;49.154;9.280;2023-02-17T12:30:32;100457.06;;;13.85;100.00
13080;BME280;6606;49.154;9.280;2023-02-17T12:33:29;100447.81;;;13.75;100.00
13080;BME280;6606;49.154;9.280;2023-02-17T12:36:16;100457.84;;;13.70;100.00
13080;BME280;6606;49.154;9.280;2023-02-17T12:39:02;100458.16;;;13.81;100.00
13080;BME280;6606;49.154;9.280;2023-02-17T12:41:48;100458.97;;;13.66;100.00
13080;BME280;6606;49.154;9.280;2023-02-17T12:44:33;100453.38;;;13.53;100.00
13080;BME280;6606;49.154;9.280;2023-02-17T12:47:22;100454.56;;;13.47;100.00
13080;BME280;6606;49.154;9.280;2023-02-17T12:50:14;100451.25;;;13.42;100.00
13080;BME280;6606;49.154;9.280;2023-02-17T12:53:01;100461.44;;;13.34;100.00
13080;BME280;6606;49.154;9.280;2023-02-17T12:55:48;100456.03;;;13.53;100.00
13080;BME280;6606;49.154;9.280;2023-02-17T12:58:34;100450.84;;;13.32;100.00
13080;BME280;6606;49.154;9.280;2023-02-17T13:01:18;100453.44;;;13.51;100.00
13080;BME280;6606;49.154;9.280;2023-02-17T13:04:01;100446.63;;;13.46;100.00
13080;BME280;6606;49.154;9.280;2023-02-17T13:06:46;100444.34;;;13.38;100.00
13080;BME280;6606;49.154;9.280;2023-02-17T13:09:39;100445.34;;;13.35;100.00
13080;BME280;6606;49.154;9.280;2023-02-17T13:12:33;100440.34;;;13.29;100.00
13080;BME280;6606;49.154;9.280;2023-02-17T13:15:30;100436.72;;;13.30;100.00
13080;BME280;6606;49.154;9.280;2023-02-17T13:18:24;100441.78;;;13.36;100.00
13080;BME280;6606;49.154;9.280;2023-02-17T13:21:25;100438.84;;;13.41;100.00
13080;BME280;6606;49.154;9.280;2023-02-17T13:24:13;100427.91;;;13.47;100.00
13080;BME280;6606;49.154;9.280;2023-02-17T13:26:55;100420.25;;;13.58;100.00
13080;BME280;6606;49.154;9.280;2023-02-17T13:29:37;100426.09;;;13.65;100.00
13080;BME280;6606;49.154;9.280;2023-02-17T13:32:26;100432.94;;;13.53;100.00
13080;BME280;6606;49.154;9.280;2023-02-17T13:35:30;100429.47;;;13.51;100.00
13080;BME280;6606;49.154;9.280;2023-02-17T13:38:12;100419.94;;;13.47;100.00
13080;BME280;6606;49.154;9.280;2023-02-17T13:40:57;100411.84;;;13.49;100.00
13080;BME280;6606;49.154;9.280;2023-02-17T13:43:41;100411.69;;;13.69;100.00
13080;BME280;6606;49.154;9.280;2023-02-17T13:46:25;100404.25;;;13.58;100.00
13080;BME280;6606;49.154;9.280;2023-02-17T13:49:25;100416.47;;;13.62;100.00
13080;BME280;6606;49.154;9.280;2023-02-17T13:52:09;100404.31;;;13.57;100.00
13080;BME280;6606;49.154;9.280;2023-02-17T13:54:53;100400.09;;;13.70;100.00
13080;BME280;6606;49.154;9.280;2023-02-17T13:57:35;100401.13;;;13.50;100.00
13080;BME280;6606;49.154;9.280;2023-02-17T14:00:21;100402.50;;;13.57;100.00
13080;BME280;6606;49.154;9.280;2023-02-17T14:03:12;100393.78;;;13.55;100.00
13080;BME280;6606;49.154;9.280;2023-02-17T14:05:58;100384.22;;;13.69;100.00
13080;BME280;6606;49.154;9.280;2023-02-17T14:08:42;100383.03;;;13.74;100.00
13080;BME280;6606;49.154;9.280;2023-02-17T14:11:25;100380.81;;;13.82;100.00
13080;BME280;6606;49.154;9.280;2023-02-17T14:14:07;100376.78;;;13.91;100.00
13080;BME280;6606;49.154;9.280;2023-02-17T14:16:57;100385.13;;;13.85;100.00
13080;BME280;6606;49.154;9.280;2023-02-17T14:19:43;100392.09;;;13.88;100.00
13080;BME280;6606;49.154;9.280;2023-02-17T14:22:29;100385.59;;;13.93;100.00
13080;BME280;6606;49.154;9.280;2023-02-17T14:25:13;100389.50;;;14.03;100.00
13080;BME280;6606;49.154;9.280;2023-02-17T14:28:17;100387.28;;;13.94;100.00